sensor_id;sensor_type;location;lat;lon;timestamp;pressure;altitude;pressure_sealevel;temperature;humidity
3780;BME280;1905;52.482;9.802;2023-04-15T00:01:57;100427.50;;;8.48;75.86
3780;BME280;1905;52.482;9.802;2023-04-15T00:04:26;100432.00;;;8.46;75.42
3780;BME280;1905;52.482;9.802;2023-04-15T00:06:53;100431.19;;;8.44;75.35
3780;BME280;1905;52.482;9.802;2023-04-15T00:09:21;100425.94;;;8.44;76.53
3780;BME280;1905;52.482;9.802;2023-04-15T00:11:51;100426.84;;;8.43;75.86
3780;BME280;1905;52.482;9.802;2023-04-15T00:14:18;100433.16;;;8.39;75.62
3780;BME280;1905;52.482;9.802;2023-04-15T00:16:46;100427.03;;;8.38;75.87
3780;BME280;1905;52.482;9.802;2023-04-15T00:19:20;100423.59;;;8.36;76.34
3780;BME280;1905;52.482;9.802;2023-04-15T00:21:48;100424.44;;;8.37;76.12
3780;BME280;1905;52.482;9.802;2023-04-15T00:24:16;100420.03;;;8.37;75.81
3780;BME280;1905;52.482;9.802;2023-04-15T00:26:43;100421.81;;;8.37;75.78
3780;BME280;1905;52.482;9.802;2023-04-15T00:29:12;100415.88;;;8.32;75.82
3780;BME280;1905;52.482;9.802;2023-04-15T00:31:40;100408.91;;;8.31;76.23
3780;BME280;1905;52.482;9.802;2023-04-15T00:34:08;100398.41;;;8.31;75.90
3780;BME280;1905;52.482;9.802;2023-04-15T00:36:36;100405.47;;;8.29;76.03
3780;BME280;1905;52.482;9.802;2023-04-15T00:39:03;100412.44;;;8.30;76.27
3780;BME280;1905;52.482;9.802;2023-04-15T00:41:31;100407.19;;;8.30;76.44
3780;BME280;1905;52.482;9.802;2023-04-15T00:44:00;100402.91;;;8.27;76.17
3780;BME280;1905;52.482;9.802;2023-04-15T00:46:30;100392.31;;;8.29;75.98
3780;BME280;1905;52.482;9.802;2023-04-15T00:48:59;100397.69;;;8.26;75.81
3780;BME280;1905;52.482;9.802;2023-04-15T00:51:27;100393.31;;;8.25;76.14
3780;BME280;1905;52.482;9.802;2023-04-15T00:53:56;100401.28;;;8.23;76.21
3780;BME280;1905;52.482;9.802;2023-04-15T00:56:24;100398.72;;;8.22;76.57
3780;BME280;1905;52.482;9.802;2023-04-15T00:58:52;100396.97;;;8.21;75.56
3780;BME280;1905;52.482;9.802;2023-04-15T01:01:20;100388.28;;;8.19;76.33
3780;BME280;1905;52.482;9.802;2023-04-15T01:03:50;100394.50;;;8.18;76.27
3780;BME280;1905;52.482;9.802;2023-04-15T01:06:18;100387.44;;;8.18;76.50
3780;BME280;1905;52.482;9.802;2023-04-15T01:08:45;100382.19;;;8.18;76.54
3780;BME280;1905;52.482;9.802;2023-04-15T01:11:13;100388.28;;;8.19;76.26
3780;BME280;1905;52.482;9.802;2023-04-15T01:13:42;100384.88;;;8.17;76.74
3780;BME280;1905;52.482;9.802;2023-04-15T01:16:10;100392.78;;;8.17;76.32
3780;BME280;1905;52.482;9.802;2023-04-15T01:18:39;100395.41;;;8.17;77.24
3780;BME280;1905;52.482;9.802;2023-04-15T01:21:08;100391.03;;;8.16;77.28
3780;BME280;1905;52.482;9.802;2023-04-15T01:23:36;100393.66;;;8.16;77.27
3780;BME280;1905;52.482;9.802;2023-04-15T01:26:07;100386.72;;;8.15;76.65
3780;BME280;1905;52.482;9.802;2023-04-15T01:28:35;100386.72;;;8.15;76.79
3780;BME280;1905;52.482;9.802;2023-04-15T01:31:05;100389.34;;;8.15;77.22
3780;BME280;1905;52.482;9.802;2023-04-15T01:33:36;100384.09;;;8.15;77.59
3780;BME280;1905;52.482;9.802;2023-04-15T01:36:06;100381.47;;;8.15;76.31
3780;BME280;1905;52.482;9.802;2023-04-15T01:38:35;100378.00;;;8.13;77.20
3780;BME280;1905;52.482;9.802;2023-04-15T01:41:03;100381.47;;;8.15;76.79
3780;BME280;1905;52.482;9.802;2023-04-15T01:43:34;100384.09;;;8.15;76.76
3780;BME280;1905;52.482;9.802;2023-04-15T01:46:02;100380.59;;;8.14;76.55
3780;BME280;1905;52.482;9.802;2023-04-15T01:48:31;100382.28;;;8.15;77.22
3780;BME280;1905;52.482;9.802;2023-04-15T01:50:58;100385.00;;;8.14;76.74
3780;BME280;1905;52.482;9.802;2023-04-15T01:53:26;100381.34;;;8.18;76.24
3780;BME280;1905;52.482;9.802;2023-04-15T01:55:54;100372.63;;;8.16;76.40
3780;BME280;1905;52.482;9.802;2023-04-15T01:58:22;100377.09;;;8.14;76.84
3780;BME280;1905;52.482;9.802;2023-04-15T02:00:51;100370.13;;;8.13;77.11
3780;BME280;1905;52.482;9.802;2023-04-15T02:03:19;100370.69;;;8.21;77.44
3780;BME280;1905;52.482;9.802;2023-04-15T02:05:47;100366.50;;;8.15;77.81
3780;BME280;1905;52.482;9.802;2023-04-15T02:08:14;100367.25;;;8.19;76.90
3780;BME280;1905;52.482;9.802;2023-04-15T02:10:42;100362.13;;;8.16;77.25
3780;BME280;1905;52.482;9.802;2023-04-15T02:13:10;100358.56;;;8.17;77.12
3780;BME280;1905;52.482;9.802;2023-04-15T02:15:37;100361.13;;;8.18;77.06
3780;BME280;1905;52.482;9.802;2023-04-15T02:18:06;100355.09;;;8.16;76.52
3780;BME280;1905;52.482;9.802;2023-04-15T02:20:34;100350.69;;;8.17;77.10
3780;BME280;1905;52.482;9.802;2023-04-15T02:23:03;100354.09;;;8.19;77.03
3780;BME280;1905;52.482;9.802;2023-04-15T02:25:32;100348.84;;;8.19;76.30
3780;BME280;1905;52.482;9.802;2023-04-15T02:28:00;100352.25;;;8.21;77.14
3780;BME280;1905;52.482;9.802;2023-04-15T02:30:27;100345.31;;;8.20;77.17
3780;BME280;1905;52.482;9.802;2023-04-15T02:32:55;100344.53;;;8.18;76.70
3780;BME280;1905;52.482;9.802;2023-04-15T02:35:25;100341.94;;;8.16;77.10
3780;BME280;1905;52.482;9.802;2023-04-15T02:37:53;100345.34;;;8.18;76.89
3780;BME280;1905;52.482;9.802;2023-04-15T02:40:21;100344.38;;;8.21;76.81
3780;BME280;1905;52.482;9.802;2023-04-15T02:42:49;100342.56;;;8.23;78.24
3780;BME280;1905;52.482;9.802;2023-04-15T02:45:17;100351.47;;;8.19;77.27
3780;BME280;1905;52.482;9.802;2023-04-15T02:47:48;100351.34;;;8.22;77.67
3780;BME280;1905;52.482;9.802;2023-04-15T02:50:16;100349.63;;;8.21;77.54
3780;BME280;1905;52.482;9.802;2023-04-15T02:52:46;100350.50;;;8.21;78.47
3780;BME280;1905;52.482;9.802;2023-04-15T02:55:14;100356.63;;;8.22;77.33
3780;BME280;1905;52.482;9.802;2023-04-15T02:57:43;100353.19;;;8.20;78.30
3780;BME280;1905;52.482;9.802;2023-04-15T03:00:12;100361.13;;;8.18;79.04
3780;BME280;1905;52.482;9.802;2023-04-15T03:02:43;100361.22;;;8.17;78.21
3780;BME280;1905;52.482;9.802;2023-04-15T03:05:11;100362.78;;;8.21;78.27
3780;BME280;1905;52.482;9.802;2023-04-15T03:07:47;100364.50;;;8.22;79.29
3780;BME280;1905;52.482;9.802;2023-04-15T03:10:14;100363.66;;;8.21;78.66
3780;BME280;1905;52.482;9.802;2023-04-15T03:12:42;100369.72;;;8.23;78.97
3780;BME280;1905;52.482;9.802;2023-04-15T03:15:15;100360.03;;;8.24;78.13
3780;BME280;1905;52.482;9.802;2023-04-15T03:17:46;100360.03;;;8.24;77.76
3780;BME280;1905;52.482;9.802;2023-04-15T03:20:15;100353.09;;;8.23;77.10
3780;BME280;1905;52.482;9.802;2023-04-15T03:22:43;100368.75;;;8.26;77.44
3780;BME280;1905;52.482;9.802;2023-04-15T03:25:12;100360.91;;;8.24;77.15
3780;BME280;1905;52.482;9.802;2023-04-15T03:27:40;100365.22;;;8.27;77.40
3780;BME280;1905;52.482;9.802;2023-04-15T03:30:08;100359.97;;;8.27;77.80
3780;BME280;1905;52.482;9.802;2023-04-15T03:32:37;100360.91;;;8.24;78.33
3780;BME280;1905;52.482;9.802;2023-04-15T03:35:06;100354.69;;;8.27;77.24
3780;BME280;1905;52.482;9.802;2023-04-15T03:37:34;100352.97;;;8.26;78.15
3780;BME280;1905;52.482;9.802;2023-04-15T03:40:02;100347.59;;;8.29;78.22
3780;BME280;1905;52.482;9.802;2023-04-15T03:42:31;100352.94;;;8.27;77.63
3780;BME280;1905;52.482;9.802;2023-04-15T03:44:58;100361.69;;;8.28;78.19
3780;BME280;1905;52.482;9.802;2023-04-15T03:47:26;100359.97;;;8.27;77.04
3780;BME280;1905;52.482;9.802;2023-04-15T03:49:53;100361.69;;;8.28;78.16
3780;BME280;1905;52.482;9.802;2023-04-15T03:52:21;100359.97;;;8.27;78.22
3780;BME280;1905;52.482;9.802;2023-04-15T03:54:48;100363.38;;;8.29;77.99
3780;BME280;1905;52.482;9.802;2023-04-15T03:57:16;100362.59;;;8.27;77.66
3780;BME280;1905;52.482;9.802;2023-04-15T03:59:45;100359.06;;;8.28;77.05
3780;BME280;1905;52.482;9.802;2023-04-15T04:02:13;100358.13;;;8.29;78.70
3780;BME280;1905;52.482;9.802;2023-04-15T04:04:40;100365.22;;;8.27;78.31
3780;BME280;1905;52.482;9.802;2023-04-15T04:07:14;100363.50;;;8.26;78.27
3780;BME280;1905;52.482;9.802;2023-04-15T04:09:41;100361.75;;;8.25;78.40
3780;BME280;1905;52.482;9.802;2023-04-15T04:12:11;100359.06;;;8.28;78.01
3780;BME280;1905;52.482;9.802;2023-04-15T04:14:38;100364.31;;;8.28;77.51
3780;BME280;1905;52.482;9.802;2023-04-15T04:17:07;100363.50;;;8.26;77.84
3780;BME280;1905;52.482;9.802;2023-04-15T04:19:35;100368.72;;;8.27;77.77
3780;BME280;1905;52.482;9.802;2023-04-15T04:22:02;100366.00;;;8.29;77.90
3780;BME280;1905;52.482;9.802;2023-04-15T04:24:30;100363.38;;;8.29;77.49
3780;BME280;1905;52.482;9.802;2023-04-15T04:26:57;100359.06;;;8.28;78.12
3780;BME280;1905;52.482;9.802;2023-04-15T04:29:25;100366.00;;;8.29;77.62
3780;BME280;1905;52.482;9.802;2023-04-15T04:31:52;100362.47;;;8.30;77.13
3780;BME280;1905;52.482;9.802;2023-04-15T04:34:21;100369.50;;;8.29;77.42
3780;BME280;1905;52.482;9.802;2023-04-15T04:36:49;100368.59;;;8.30;78.09
3780;BME280;1905;52.482;9.802;2023-04-15T04:39:16;100364.19;;;8.31;77.66
3780;BME280;1905;52.482;9.802;2023-04-15T04:41:44;100361.59;;;8.29;77.57
3780;BME280;1905;52.482;9.802;2023-04-15T04:44:11;100367.72;;;8.30;77.41
3780;BME280;1905;52.482;9.802;2023-04-15T04:46:39;100361.56;;;8.31;77.09
3780;BME280;1905;52.482;9.802;2023-04-15T04:49:06;100363.38;;;8.29;77.14
3780;BME280;1905;52.482;9.802;2023-04-15T04:51:35;100354.69;;;8.27;77.98
3780;BME280;1905;52.482;9.802;2023-04-15T04:54:03;100360.75;;;8.29;77.33
3780;BME280;1905;52.482;9.802;2023-04-15T04:56:30;100359.97;;;8.27;78.55
3780;BME280;1905;52.482;9.802;2023-04-15T04:59:03;100367.03;;;8.25;78.86
3780;BME280;1905;52.482;9.802;2023-04-15T05:01:30;100358.22;;;8.26;78.67
3780;BME280;1905;52.482;9.802;2023-04-15T05:03:59;100360.84;;;8.26;78.44
3780;BME280;1905;52.482;9.802;2023-04-15T05:06:26;100374.72;;;8.31;79.07
3780;BME280;1905;52.482;9.802;2023-04-15T05:08:57;100365.22;;;8.27;77.75
3780;BME280;1905;52.482;9.802;2023-04-15T05:11:25;100365.28;;;8.24;80.39
3780;BME280;1905;52.482;9.802;2023-04-15T05:13:53;100372.28;;;8.25;78.56
3780;BME280;1905;52.482;9.802;2023-04-15T05:16:21;100374.00;;;8.26;77.97
3780;BME280;1905;52.482;9.802;2023-04-15T05:18:51;100375.81;;;8.24;78.56
3780;BME280;1905;52.482;9.802;2023-04-15T05:21:19;100374.00;;;8.26;78.58
3780;BME280;1905;52.482;9.802;2023-04-15T05:23:46;100376.69;;;8.24;78.46
3780;BME280;1905;52.482;9.802;2023-04-15T05:26:15;100380.19;;;8.25;78.31
3780;BME280;1905;52.482;9.802;2023-04-15T05:28:43;100371.34;;;8.27;78.57
3780;BME280;1905;52.482;9.802;2023-04-15T05:31:10;100377.47;;;8.26;77.96
3780;BME280;1905;52.482;9.802;2023-04-15T05:33:38;100377.47;;;8.28;78.45
3780;BME280;1905;52.482;9.802;2023-04-15T05:36:06;100372.19;;;8.28;78.16
3780;BME280;1905;52.482;9.802;2023-04-15T05:38:33;100380.09;;;8.28;78.66
3780;BME280;1905;52.482;9.802;2023-04-15T05:41:01;100372.09;;;8.31;79.01
3780;BME280;1905;52.482;9.802;2023-04-15T05:43:30;100367.03;;;8.25;78.60
3780;BME280;1905;52.482;9.802;2023-04-15T05:45:57;100372.19;;;8.28;78.76
3780;BME280;1905;52.482;9.802;2023-04-15T05:48:25;100369.38;;;8.32;79.82
3780;BME280;1905;52.482;9.802;2023-04-15T05:50:52;100368.75;;;8.26;79.50
3780;BME280;1905;52.482;9.802;2023-04-15T05:53:20;100368.53;;;8.32;80.45
3780;BME280;1905;52.482;9.802;2023-04-15T05:55:48;100366.94;;;8.28;79.46
3780;BME280;1905;52.482;9.802;2023-04-15T05:58:15;100367.72;;;8.30;78.96
3780;BME280;1905;52.482;9.802;2023-04-15T06:00:44;100368.53;;;8.32;79.97
3780;BME280;1905;52.482;9.802;2023-04-15T06:03:12;100363.38;;;8.29;79.97
3780;BME280;1905;52.482;9.802;2023-04-15T06:05:40;100368.53;;;8.32;79.64
3780;BME280;1905;52.482;9.802;2023-04-15T06:08:07;100358.00;;;8.32;79.55
3780;BME280;1905;52.482;9.802;2023-04-15T06:10:38;100362.44;;;8.31;80.18
3780;BME280;1905;52.482;9.802;2023-04-15T06:13:06;100358.00;;;8.32;79.82
3780;BME280;1905;52.482;9.802;2023-04-15T06:15:33;100355.31;;;8.33;79.45
3780;BME280;1905;52.482;9.802;2023-04-15T06:18:02;100351.75;;;8.34;79.69
3780;BME280;1905;52.482;9.802;2023-04-15T06:20:30;100356.03;;;8.37;79.89
3780;BME280;1905;52.482;9.802;2023-04-15T06:22:58;100353.41;;;8.37;79.95
3780;BME280;1905;52.482;9.802;2023-04-15T06:25:25;100348.22;;;8.35;80.20
3780;BME280;1905;52.482;9.802;2023-04-15T06:27:53;100350.78;;;8.37;79.77
3780;BME280;1905;52.482;9.802;2023-04-15T06:30:20;100360.47;;;8.36;79.40
3780;BME280;1905;52.482;9.802;2023-04-15T06:32:49;100357.75;;;8.38;80.00
3780;BME280;1905;52.482;9.802;2023-04-15T06:35:19;100362.03;;;8.41;80.80
3780;BME280;1905;52.482;9.802;2023-04-15T06:37:47;100355.91;;;8.40;81.20
3780;BME280;1905;52.482;9.802;2023-04-15T06:40:15;100349.66;;;8.43;80.22
3780;BME280;1905;52.482;9.802;2023-04-15T06:42:42;100363.38;;;8.51;80.38
3780;BME280;1905;52.482;9.802;2023-04-15T06:45:10;100368.03;;;8.44;79.31
3780;BME280;1905;52.482;9.802;2023-04-15T06:47:38;100380.28;;;8.45;81.21
3780;BME280;1905;52.482;9.802;2023-04-15T06:50:06;100387.38;;;8.43;81.48
3780;BME280;1905;52.482;9.802;2023-04-15T06:52:36;100385.78;;;8.39;81.41
3780;BME280;1905;52.482;9.802;2023-04-15T06:55:05;100379.56;;;8.42;82.43
3780;BME280;1905;52.482;9.802;2023-04-15T06:57:33;100394.25;;;8.47;81.74
3780;BME280;1905;52.482;9.802;2023-04-15T07:00:00;100385.69;;;8.42;81.51
3780;BME280;1905;52.482;9.802;2023-04-15T07:02:30;100370.59;;;8.46;82.79
3780;BME280;1905;52.482;9.802;2023-04-15T07:04:58;100373.53;;;8.38;84.98
3780;BME280;1905;52.482;9.802;2023-04-15T07:07:27;100381.31;;;8.41;83.15
3780;BME280;1905;52.482;9.802;2023-04-15T07:09:55;100376.91;;;8.42;82.54
3780;BME280;1905;52.482;9.802;2023-04-15T07:12:23;100384.56;;;8.48;82.78
3780;BME280;1905;52.482;9.802;2023-04-15T07:14:51;100383.84;;;8.44;82.39
3780;BME280;1905;52.482;9.802;2023-04-15T07:17:18;100382.00;;;8.46;81.96
3780;BME280;1905;52.482;9.802;2023-04-15T07:19:46;100387.81;;;8.54;82.88
3780;BME280;1905;52.482;9.802;2023-04-15T07:22:13;100395.81;;;8.51;84.11
3780;BME280;1905;52.482;9.802;2023-04-15T07:24:41;100388.97;;;8.47;82.52
3780;BME280;1905;52.482;9.802;2023-04-15T07:27:10;100398.63;;;8.47;84.64
3780;BME280;1905;52.482;9.802;2023-04-15T07:29:38;100397.59;;;8.51;83.78
3780;BME280;1905;52.482;9.802;2023-04-15T07:32:06;100395.81;;;8.51;84.60
3780;BME280;1905;52.482;9.802;2023-04-15T07:34:33;100404.53;;;8.53;83.62
3780;BME280;1905;52.482;9.802;2023-04-15T07:37:01;100401.75;;;8.56;82.95
3780;BME280;1905;52.482;9.802;2023-04-15T07:39:28;100395.66;;;8.56;82.36
3780;BME280;1905;52.482;9.802;2023-04-15T07:41:56;100394.59;;;8.60;83.60
3780;BME280;1905;52.482;9.802;2023-04-15T07:44:25;100392.72;;;8.63;83.34
3780;BME280;1905;52.482;9.802;2023-04-15T07:46:53;100399.94;;;8.58;84.41
3780;BME280;1905;52.482;9.802;2023-04-15T07:49:21;100405.91;;;8.62;83.89
3780;BME280;1905;52.482;9.802;2023-04-15T07:51:49;100407.56;;;8.64;83.53
3780;BME280;1905;52.482;9.802;2023-04-15T07:54:16;100404.88;;;8.66;82.53
3780;BME280;1905;52.482;9.802;2023-04-15T07:56:44;100403.03;;;8.68;83.00
3780;BME280;1905;52.482;9.802;2023-04-15T07:59:11;100402.19;;;8.67;84.80
3780;BME280;1905;52.482;9.802;2023-04-15T08:01:42;100409.16;;;8.68;84.76
3780;BME280;1905;52.482;9.802;2023-04-15T08:04:10;100403.78;;;8.71;83.76
3780;BME280;1905;52.482;9.802;2023-04-15T08:06:38;100410.50;;;8.78;84.06
3780;BME280;1905;52.482;9.802;2023-04-15T08:09:05;100414.06;;;8.77;84.48
3780;BME280;1905;52.482;9.802;2023-04-15T08:11:33;100419.34;;;8.77;84.02
3780;BME280;1905;52.482;9.802;2023-04-15T08:14:01;100421.91;;;8.79;84.85
3780;BME280;1905;52.482;9.802;2023-04-15T08:16:29;100427.91;;;8.82;84.16
3780;BME280;1905;52.482;9.802;2023-04-15T08:18:58;100425.94;;;8.87;84.25
3780;BME280;1905;52.482;9.802;2023-04-15T08:21:26;100429.47;;;8.86;84.64
3780;BME280;1905;52.482;9.802;2023-04-15T08:23:56;100426.06;;;8.84;85.86
3780;BME280;1905;52.482;9.802;2023-04-15T08:26:23;100426.78;;;8.88;85.11
3780;BME280;1905;52.482;9.802;2023-04-15T08:28:51;100425.16;;;8.85;85.95
3780;BME280;1905;52.482;9.802;2023-04-15T08:31:19;100432.06;;;8.88;85.26
3780;BME280;1905;52.482;9.802;2023-04-15T08:33:47;100425.03;;;8.88;84.45
3780;BME280;1905;52.482;9.802;2023-04-15T08:36:18;100428.25;;;8.95;84.92
3780;BME280;1905;52.482;9.802;2023-04-15T08:38:46;100423.97;;;8.92;83.97
3780;BME280;1905;52.482;9.802;2023-04-15T08:41:20;100422.25;;;8.91;83.80
3780;BME280;1905;52.482;9.802;2023-04-15T08:43:52;100431.94;;;8.91;84.53
3780;BME280;1905;52.482;9.802;2023-04-15T08:46:20;100429.22;;;8.92;83.89
3780;BME280;1905;52.482;9.802;2023-04-15T08:48:49;100423.06;;;8.93;83.80
3780;BME280;1905;52.482;9.802;2023-04-15T08:51:19;100435.38;;;8.93;83.64
3780;BME280;1905;52.482;9.802;2023-04-15T08:53:51;100434.44;;;8.94;83.41
3780;BME280;1905;52.482;9.802;2023-04-15T08:56:23;100430.63;;;9.01;83.64
3780;BME280;1905;52.482;9.802;2023-04-15T08:58:51;100430.69;;;8.99;84.40
3780;BME280;1905;52.482;9.802;2023-04-15T09:01:19;100428.88;;;9.02;84.77
3780;BME280;1905;52.482;9.802;2023-04-15T09:03:48;100431.53;;;9.00;83.86
3780;BME280;1905;52.482;9.802;2023-04-15T09:06:16;100432.09;;;9.08;84.18
3780;BME280;1905;52.482;9.802;2023-04-15T09:08:45;100428.47;;;9.11;85.40
3780;BME280;1905;52.482;9.802;2023-04-15T09:11:13;100426.69;;;9.11;84.27
3780;BME280;1905;52.482;9.802;2023-04-15T09:13:40;100437.06;;;9.16;84.10
3780;BME280;1905;52.482;9.802;2023-04-15T09:16:08;100442.97;;;9.21;84.14
3780;BME280;1905;52.482;9.802;2023-04-15T09:18:38;100442.69;;;9.27;84.50
3780;BME280;1905;52.482;9.802;2023-04-15T09:21:06;100445.63;;;9.21;83.99
3780;BME280;1905;52.482;9.802;2023-04-15T09:23:35;100447.31;;;9.22;84.14
3780;BME280;1905;52.482;9.802;2023-04-15T09:26:05;100447.19;;;9.25;82.94
3780;BME280;1905;52.482;9.802;2023-04-15T09:28:32;100453.19;;;9.28;84.54
3780;BME280;1905;52.482;9.802;2023-04-15T09:31:01;100455.63;;;9.33;82.78
3780;BME280;1905;52.482;9.802;2023-04-15T09:33:29;100462.63;;;9.34;83.15
3780;BME280;1905;52.482;9.802;2023-04-15T09:35:59;100460.91;;;9.33;84.60
3780;BME280;1905;52.482;9.802;2023-04-15T09:38:27;100457.22;;;9.37;84.97
3780;BME280;1905;52.482;9.802;2023-04-15T09:40:54;100461.44;;;9.41;85.24
3780;BME280;1905;52.482;9.802;2023-04-15T09:43:36;100470.06;;;9.44;85.04
3780;BME280;1905;52.482;9.802;2023-04-15T09:46:04;100474.34;;;9.47;84.79
3780;BME280;1905;52.482;9.802;2023-04-15T09:48:32;100471.06;;;9.42;86.30
3780;BME280;1905;52.482;9.802;2023-04-15T09:51:00;100469.94;;;9.47;87.21
3780;BME280;1905;52.482;9.802;2023-04-15T09:53:28;100476.09;;;9.48;84.98
3780;BME280;1905;52.482;9.802;2023-04-15T09:55:58;100475.88;;;9.52;84.79
3780;BME280;1905;52.482;9.802;2023-04-15T09:58:30;100478.38;;;9.55;83.71
3780;BME280;1905;52.482;9.802;2023-04-15T10:00:59;100481.03;;;9.55;84.90
3780;BME280;1905;52.482;9.802;2023-04-15T10:03:29;100476.59;;;9.56;85.92
3780;BME280;1905;52.482;9.802;2023-04-15T10:05:59;100482.59;;;9.59;86.14
3780;BME280;1905;52.482;9.802;2023-04-15T10:08:28;100480.09;;;9.56;85.90
3780;BME280;1905;52.482;9.802;2023-04-15T10:10:57;100485.97;;;9.63;85.54
3780;BME280;1905;52.482;9.802;2023-04-15T10:13:26;100489.25;;;9.68;86.35
3780;BME280;1905;52.482;9.802;2023-04-15T10:15:57;100487.56;;;9.67;85.37
3780;BME280;1905;52.482;9.802;2023-04-15T10:18:27;100489.13;;;9.71;85.93
3780;BME280;1905;52.482;9.802;2023-04-15T10:20:55;100481.16;;;9.73;84.76
3780;BME280;1905;52.482;9.802;2023-04-15T10:23:23;100487.25;;;9.73;85.70
3780;BME280;1905;52.482;9.802;2023-04-15T10:25:52;100487.09;;;9.78;84.05
3780;BME280;1905;52.482;9.802;2023-04-15T10:28:20;100489.59;;;9.81;84.51
3780;BME280;1905;52.482;9.802;2023-04-15T10:30:48;100492.16;;;9.82;85.78
3780;BME280;1905;52.482;9.802;2023-04-15T10:33:21;100497.56;;;9.79;85.23
3780;BME280;1905;52.482;9.802;2023-04-15T10:35:50;100480.59;;;9.85;86.70
3780;BME280;1905;52.482;9.802;2023-04-15T10:38:35;100488.47;;;9.86;87.04
3780;BME280;1905;52.482;9.802;2023-04-15T10:41:18;100482.25;;;9.87;84.30
3780;BME280;1905;52.482;9.802;2023-04-15T10:43:48;100484.88;;;9.87;85.74
3780;BME280;1905;52.482;9.802;2023-04-15T10:46:18;100484.75;;;9.90;86.08
3780;BME280;1905;52.482;9.802;2023-04-15T10:48:49;100481.22;;;9.91;85.32
3780;BME280;1905;52.482;9.802;2023-04-15T10:51:26;100489.03;;;9.93;85.38
3780;BME280;1905;52.482;9.802;2023-04-15T10:53:58;100486.19;;;9.97;86.76
3780;BME280;1905;52.482;9.802;2023-04-15T10:56:27;100494.78;;;10.02;86.41
3780;BME280;1905;52.482;9.802;2023-04-15T10:58:58;100496.75;;;9.97;87.42
3780;BME280;1905;52.482;9.802;2023-04-15T11:01:49;100492.19;;;10.01;85.97
3780;BME280;1905;52.482;9.802;2023-04-15T11:04:57;100500.72;;;10.07;85.77
3780;BME280;1905;52.482;9.802;2023-04-15T11:07:35;100498.06;;;10.07;89.08
3780;BME280;1905;52.482;9.802;2023-04-15T11:13:19;100500.50;;;10.12;87.06
3780;BME280;1905;52.482;9.802;2023-04-15T11:15:48;100499.53;;;10.14;85.58
3780;BME280;1905;52.482;9.802;2023-04-15T11:18:18;100501.13;;;10.19;86.06
3780;BME280;1905;52.482;9.802;2023-04-15T11:20:49;100505.41;;;10.21;86.50
3780;BME280;1905;52.482;9.802;2023-04-15T11:23:18;100513.22;;;10.23;85.60
3780;BME280;1905;52.482;9.802;2023-04-15T11:25:46;100511.19;;;10.29;85.20
3780;BME280;1905;52.482;9.802;2023-04-15T11:28:14;100516.38;;;10.31;86.02
3780;BME280;1905;52.482;9.802;2023-04-15T11:30:42;100515.34;;;10.35;87.16
3780;BME280;1905;52.482;9.802;2023-04-15T11:33:10;100512.44;;;10.41;86.56
3780;BME280;1905;52.482;9.802;2023-04-15T11:35:40;100521.41;;;10.37;85.60
3780;BME280;1905;52.482;9.802;2023-04-15T11:38:11;100527.31;;;10.42;85.57
3780;BME280;1905;52.482;9.802;2023-04-15T11:40:39;100528.97;;;10.44;84.94
3780;BME280;1905;52.482;9.802;2023-04-15T11:43:13;100531.41;;;10.49;85.13
3780;BME280;1905;52.482;9.802;2023-04-15T11:45:50;100527.69;;;10.53;85.43
3780;BME280;1905;52.482;9.802;2023-04-15T11:48:20;100537.53;;;10.49;85.73
3780;BME280;1905;52.482;9.802;2023-04-15T11:50:52;100537.66;;;10.46;85.77
3780;BME280;1905;52.482;9.802;2023-04-15T11:53:22;100543.63;;;10.51;85.68
3780;BME280;1905;52.482;9.802;2023-04-15T11:55:52;100545.13;;;10.57;84.89
3780;BME280;1905;52.482;9.802;2023-04-15T11:58:22;100551.03;;;10.62;85.23
3780;BME280;1905;52.482;9.802;2023-04-15T12:00:52;100547.75;;;10.57;85.31
3780;BME280;1905;52.482;9.802;2023-04-15T12:03:24;100555.38;;;10.63;85.31
3780;BME280;1905;52.482;9.802;2023-04-15T12:06:20;100547.41;;;10.64;84.41
3780;BME280;1905;52.482;9.802;2023-04-15T12:08:56;100554.31;;;10.67;85.02
3780;BME280;1905;52.482;9.802;2023-04-15T12:11:34;100565.53;;;10.72;86.31
3780;BME280;1905;52.482;9.802;2023-04-15T12:14:05;100565.66;;;10.69;86.05
3780;BME280;1905;52.482;9.802;2023-04-15T12:16:34;100560.38;;;10.69;85.99
3780;BME280;1905;52.482;9.802;2023-04-15T12:19:17;100570.81;;;10.72;87.10
3780;BME280;1905;52.482;9.802;2023-04-15T12:21:46;100563.81;;;10.71;86.40
3780;BME280;1905;52.482;9.802;2023-04-15T12:24:19;100574.09;;;10.77;84.59
3780;BME280;1905;52.482;9.802;2023-04-15T12:26:48;100577.50;;;10.79;84.94
3780;BME280;1905;52.482;9.802;2023-04-15T12:29:16;100583.47;;;10.84;84.95
3780;BME280;1905;52.482;9.802;2023-04-15T12:31:49;100582.50;;;10.85;85.53
3780;BME280;1905;52.482;9.802;2023-04-15T12:34:25;100582.09;;;10.94;86.91
3780;BME280;1905;52.482;9.802;2023-04-15T12:36:54;100584.09;;;10.89;85.12
3780;BME280;1905;52.482;9.802;2023-04-15T12:39:24;100587.38;;;10.94;85.87
3780;BME280;1905;52.482;9.802;2023-04-15T12:41:55;100597.69;;;11.00;87.28
3780;BME280;1905;52.482;9.802;2023-04-15T12:44:23;100596.88;;;10.98;87.10
3780;BME280;1905;52.482;9.802;2023-04-15T12:46:51;100600.22;;;11.02;87.70
3780;BME280;1905;52.482;9.802;2023-04-15T12:49:20;100602.97;;;11.00;85.68
3780;BME280;1905;52.482;9.802;2023-04-15T12:51:48;100611.25;;;11.11;87.77
3780;BME280;1905;52.482;9.802;2023-04-15T12:54:16;100613.94;;;11.10;86.60
3780;BME280;1905;52.482;9.802;2023-04-15T12:56:46;100612.06;;;11.12;86.72
3780;BME280;1905;52.482;9.802;2023-04-15T12:59:14;100610.25;;;11.14;87.22
3780;BME280;1905;52.482;9.802;2023-04-15T13:01:44;100612.50;;;11.21;87.38
3780;BME280;1905;52.482;9.802;2023-04-15T13:04:12;100620.94;;;11.29;87.53
3780;BME280;1905;52.482;9.802;2023-04-15T13:06:43;100620.66;;;11.35;86.99
3780;BME280;1905;52.482;9.802;2023-04-15T13:09:10;100620.50;;;11.39;86.30
3780;BME280;1905;52.482;9.802;2023-04-15T13:11:38;100628.94;;;11.47;87.39
3780;BME280;1905;52.482;9.802;2023-04-15T13:14:08;100629.75;;;11.47;86.86
3780;BME280;1905;52.482;9.802;2023-04-15T13:16:36;100627.06;;;11.49;85.84
3780;BME280;1905;52.482;9.802;2023-04-15T13:19:04;100630.09;;;11.58;86.44
3780;BME280;1905;52.482;9.802;2023-04-15T13:21:32;100628.41;;;11.57;86.35
3780;BME280;1905;52.482;9.802;2023-04-15T13:24:01;100617.31;;;11.68;85.31
3780;BME280;1905;52.482;9.802;2023-04-15T13:26:30;100627.28;;;11.80;85.76
3780;BME280;1905;52.482;9.802;2023-04-15T13:28:58;100627.91;;;11.85;84.62
3780;BME280;1905;52.482;9.802;2023-04-15T13:31:27;100629.34;;;11.92;83.75
3780;BME280;1905;52.482;9.802;2023-04-15T13:33:55;100631.53;;;12.01;84.55